sensor_id;sensor_type;location;lat;lon;timestamp;P1;durP1;ratioP1;P2;durP2;ratioP2
44204;SDS011;30163;42.698;23.344;2022-08-25T00:00:39;52.28;;;16.65;;
44204;SDS011;30163;42.698;23.344;2022-08-25T00:03:05;48.92;;;15.77;;
44204;SDS011;30163;42.698;23.344;2022-08-25T00:05:32;45.88;;;16.23;;
44204;SDS011;30163;42.698;23.344;2022-08-25T00:07:57;51.90;;;16.80;;
44204;SDS011;30163;42.698;23.344;2022-08-25T00:10:23;54.60;;;16.90;;
44204;SDS011;30163;42.698;23.344;2022-08-25T00:12:49;52.80;;;17.35;;
44204;SDS011;30163;42.698;23.344;2022-08-25T00:15:15;48.95;;;16.27;;
44204;SDS011;30163;42.698;23.344;2022-08-25T00:17:40;48.97;;;16.25;;
44204;SDS011;30163;42.698;23.344;2022-08-25T00:20:09;46.38;;;15.65;;
44204;SDS011;30163;42.698;23.344;2022-08-25T00:22:37;57.20;;;17.85;;
44204;SDS011;30163;42.698;23.344;2022-08-25T00:25:03;48.63;;;17.42;;
44204;SDS011;30163;42.698;23.344;2022-08-25T00:27:29;37.88;;;16.63;;
44204;SDS011;30163;42.698;23.344;2022-08-25T00:29:54;46.13;;;17.10;;
44204;SDS011;30163;42.698;23.344;2022-08-25T00:32:20;45.55;;;17.17;;
44204;SDS011;30163;42.698;23.344;2022-08-25T00:34:46;55.25;;;18.33;;
44204;SDS011;30163;42.698;23.344;2022-08-25T00:37:11;50.38;;;18.33;;
44204;SDS011;30163;42.698;23.344;2022-08-25T00:39:37;46.15;;;16.80;;
44204;SDS011;30163;42.698;23.344;2022-08-25T00:42:03;50.13;;;18.65;;
44204;SDS011;30163;42.698;23.344;2022-08-25T00:44:31;41.58;;;17.50;;
44204;SDS011;30163;42.698;23.344;2022-08-25T00:47:00;42.38;;;16.35;;
44204;SDS011;30163;42.698;23.344;2022-08-25T00:49:31;42.58;;;17.35;;
44204;SDS011;30163;42.698;23.344;2022-08-25T00:52:05;53.30;;;18.15;;
44204;SDS011;30163;42.698;23.344;2022-08-25T00:54:38;43.58;;;18.00;;
44204;SDS011;30163;42.698;23.344;2022-08-25T00:57:08;48.63;;;18.35;;
44204;SDS011;30163;42.698;23.344;2022-08-25T00:59:41;57.03;;;17.97;;
44204;SDS011;30163;42.698;23.344;2022-08-25T01:02:08;42.05;;;18.50;;
44204;SDS011;30163;42.698;23.344;2022-08-25T01:04:34;60.22;;;19.13;;
44204;SDS011;30163;42.698;23.344;2022-08-25T01:07:02;49.25;;;18.10;;
44204;SDS011;30163;42.698;23.344;2022-08-25T01:09:29;39.92;;;17.30;;
44204;SDS011;30163;42.698;23.344;2022-08-25T01:11:58;64.35;;;19.13;;
44204;SDS011;30163;42.698;23.344;2022-08-25T01:14:24;53.25;;;19.38;;
44204;SDS011;30163;42.698;23.344;2022-08-25T01:16:51;58.75;;;17.98;;
44204;SDS011;30163;42.698;23.344;2022-08-25T01:19:17;46.60;;;17.23;;
44204;SDS011;30163;42.698;23.344;2022-08-25T01:21:50;54.45;;;18.58;;
44204;SDS011;30163;42.698;23.344;2022-08-25T01:24:39;51.47;;;18.20;;
44204;SDS011;30163;42.698;23.344;2022-08-25T01:27:09;54.53;;;19.65;;
44204;SDS011;30163;42.698;23.344;2022-08-25T01:29:35;52.30;;;17.15;;
44204;SDS011;30163;42.698;23.344;2022-08-25T01:32:04;50.47;;;18.02;;
44204;SDS011;30163;42.698;23.344;2022-08-25T01:34:34;49.35;;;16.40;;
44204;SDS011;30163;42.698;23.344;2022-08-25T01:37:01;57.03;;;18.58;;
44204;SDS011;30163;42.698;23.344;2022-08-25T01:39:28;68.82;;;18.23;;
44204;SDS011;30163;42.698;23.344;2022-08-25T01:42:02;64.07;;;18.45;;
44204;SDS011;30163;42.698;23.344;2022-08-25T01:44:31;53.78;;;17.30;;
44204;SDS011;30163;42.698;23.344;2022-08-25T01:46:57;60.78;;;16.70;;
44204;SDS011;30163;42.698;23.344;2022-08-25T01:49:25;59.53;;;16.10;;
44204;SDS011;30163;42.698;23.344;2022-08-25T01:51:52;34.90;;;14.50;;
44204;SDS011;30163;42.698;23.344;2022-08-25T01:54:21;45.03;;;13.60;;
44204;SDS011;30163;42.698;23.344;2022-08-25T01:56:47;45.00;;;15.77;;
44204;SDS011;30163;42.698;23.344;2022-08-25T01:59:14;51.28;;;17.58;;
44204;SDS011;30163;42.698;23.344;2022-08-25T02:01:41;42.67;;;13.90;;
44204;SDS011;30163;42.698;23.344;2022-08-25T02:04:07;51.25;;;14.75;;
44204;SDS011;30163;42.698;23.344;2022-08-25T02:06:33;39.40;;;13.68;;
44204;SDS011;30163;42.698;23.344;2022-08-25T02:09:06;41.30;;;15.63;;
44204;SDS011;30163;42.698;23.344;2022-08-25T02:11:35;43.65;;;14.15;;
44204;SDS011;30163;42.698;23.344;2022-08-25T02:14:02;51.35;;;14.32;;
44204;SDS011;30163;42.698;23.344;2022-08-25T02:16:29;40.42;;;13.45;;
44204;SDS011;30163;42.698;23.344;2022-08-25T02:18:56;55.60;;;14.10;;
44204;SDS011;30163;42.698;23.344;2022-08-25T02:21:23;54.35;;;14.07;;
44204;SDS011;30163;42.698;23.344;2022-08-25T02:23:51;55.92;;;15.10;;
44204;SDS011;30163;42.698;23.344;2022-08-25T02:26:17;42.00;;;13.07;;
44204;SDS011;30163;42.698;23.344;2022-08-25T02:28:46;44.67;;;14.10;;
44204;SDS011;30163;42.698;23.344;2022-08-25T02:31:15;50.33;;;13.68;;
44204;SDS011;30163;42.698;23.344;2022-08-25T02:33:41;40.67;;;14.15;;
44204;SDS011;30163;42.698;23.344;2022-08-25T02:36:10;50.03;;;14.95;;
44204;SDS011;30163;42.698;23.344;2022-08-25T02:38:36;79.72;;;15.25;;
44204;SDS011;30163;42.698;23.344;2022-08-25T02:41:07;48.70;;;15.52;;
44204;SDS011;30163;42.698;23.344;2022-08-25T02:43:36;54.45;;;15.82;;
44204;SDS011;30163;42.698;23.344;2022-08-25T02:46:03;54.58;;;15.18;;
44204;SDS011;30163;42.698;23.344;2022-08-25T02:48:28;55.28;;;15.75;;
44204;SDS011;30163;42.698;23.344;2022-08-25T02:50:54;48.78;;;15.20;;
44204;SDS011;30163;42.698;23.344;2022-08-25T02:53:26;38.42;;;13.73;;
44204;SDS011;30163;42.698;23.344;2022-08-25T02:55:53;46.97;;;14.23;;
44204;SDS011;30163;42.698;23.344;2022-08-25T02:58:22;53.10;;;15.77;;
44204;SDS011;30163;42.698;23.344;2022-08-25T03:00:49;71.18;;;16.15;;
44204;SDS011;30163;42.698;23.344;2022-08-25T03:03:15;52.65;;;16.13;;
44204;SDS011;30163;42.698;23.344;2022-08-25T03:05:41;49.78;;;14.40;;
44204;SDS011;30163;42.698;23.344;2022-08-25T03:08:07;43.80;;;14.45;;
44204;SDS011;30163;42.698;23.344;2022-08-25T03:10:35;40.38;;;13.70;;
44204;SDS011;30163;42.698;23.344;2022-08-25T03:13:04;47.58;;;14.57;;
44204;SDS011;30163;42.698;23.344;2022-08-25T03:15:32;39.95;;;14.15;;
44204;SDS011;30163;42.698;23.344;2022-08-25T03:18:01;45.08;;;14.25;;
44204;SDS011;30163;42.698;23.344;2022-08-25T03:20:29;54.20;;;14.20;;
44204;SDS011;30163;42.698;23.344;2022-08-25T03:22:55;49.53;;;13.32;;
44204;SDS011;30163;42.698;23.344;2022-08-25T03:25:20;38.20;;;14.02;;
44204;SDS011;30163;42.698;23.344;2022-08-25T03:28:05;41.58;;;13.68;;
44204;SDS011;30163;42.698;23.344;2022-08-25T03:30:31;43.70;;;14.05;;
44204;SDS011;30163;42.698;23.344;2022-08-25T03:32:57;39.47;;;13.60;;
44204;SDS011;30163;42.698;23.344;2022-08-25T03:35:27;41.63;;;15.02;;
44204;SDS011;30163;42.698;23.344;2022-08-25T03:37:56;48.08;;;14.20;;
44204;SDS011;30163;42.698;23.344;2022-08-25T03:40:24;37.40;;;14.07;;
44204;SDS011;30163;42.698;23.344;2022-08-25T03:42:53;41.53;;;14.50;;
44204;SDS011;30163;42.698;23.344;2022-08-25T03:45:21;52.95;;;14.52;;
44204;SDS011;30163;42.698;23.344;2022-08-25T03:47:47;33.85;;;14.57;;
44204;SDS011;30163;42.698;23.344;2022-08-25T03:50:14;38.83;;;14.45;;
44204;SDS011;30163;42.698;23.344;2022-08-25T03:52:41;38.65;;;14.20;;
44204;SDS011;30163;42.698;23.344;2022-08-25T03:55:07;54.13;;;16.13;;
44204;SDS011;30163;42.698;23.344;2022-08-25T03:57:34;38.67;;;15.15;;
44204;SDS011;30163;42.698;23.344;2022-08-25T04:00:00;45.45;;;16.20;;
44204;SDS011;30163;42.698;23.344;2022-08-25T04:02:27;32.03;;;15.05;;
44204;SDS011;30163;42.698;23.344;2022-08-25T04:04:52;39.53;;;16.00;;
44204;SDS011;30163;42.698;23.344;2022-08-25T04:07:18;44.47;;;15.82;;
44204;SDS011;30163;42.698;23.344;2022-08-25T04:09:44;40.95;;;15.63;;
44204;SDS011;30163;42.698;23.344;2022-08-25T04:12:10;46.67;;;14.75;;
44204;SDS011;30163;42.698;23.344;2022-08-25T04:14:37;38.03;;;13.85;;
44204;SDS011;30163;42.698;23.344;2022-08-25T04:17:05;34.40;;;13.45;;
44204;SDS011;30163;42.698;23.344;2022-08-25T04:19:33;33.03;;;13.05;;
44204;SDS011;30163;42.698;23.344;2022-08-25T04:22:02;35.90;;;14.40;;
44204;SDS011;30163;42.698;23.344;2022-08-25T04:24:27;37.75;;;13.82;;
44204;SDS011;30163;42.698;23.344;2022-08-25T04:26:53;34.85;;;13.80;;
44204;SDS011;30163;42.698;23.344;2022-08-25T04:29:20;48.80;;;14.75;;
44204;SDS011;30163;42.698;23.344;2022-08-25T04:31:46;33.95;;;14.18;;
44204;SDS011;30163;42.698;23.344;2022-08-25T04:34:16;46.53;;;14.82;;
44204;SDS011;30163;42.698;23.344;2022-08-25T04:36:54;28.92;;;13.80;;
44204;SDS011;30163;42.698;23.344;2022-08-25T04:39:26;40.33;;;13.75;;
44204;SDS011;30163;42.698;23.344;2022-08-25T04:41:57;53.03;;;14.48;;
44204;SDS011;30163;42.698;23.344;2022-08-25T04:44:31;43.42;;;14.75;;
44204;SDS011;30163;42.698;23.344;2022-08-25T04:46:59;48.85;;;14.98;;
44204;SDS011;30163;42.698;23.344;2022-08-25T04:49:28;42.58;;;14.70;;
44204;SDS011;30163;42.698;23.344;2022-08-25T04:51:57;67.07;;;13.48;;
44204;SDS011;30163;42.698;23.344;2022-08-25T04:54:22;26.42;;;12.75;;
44204;SDS011;30163;42.698;23.344;2022-08-25T04:56:49;38.60;;;13.15;;
44204;SDS011;30163;42.698;23.344;2022-08-25T04:59:15;31.02;;;13.73;;
44204;SDS011;30163;42.698;23.344;2022-08-25T05:01:44;45.15;;;14.45;;
44204;SDS011;30163;42.698;23.344;2022-08-25T05:04:15;31.60;;;12.95;;
44204;SDS011;30163;42.698;23.344;2022-08-25T05:06:44;45.72;;;14.18;;
44204;SDS011;30163;42.698;23.344;2022-08-25T05:09:10;37.95;;;13.93;;
44204;SDS011;30163;42.698;23.344;2022-08-25T05:11:36;42.28;;;14.55;;
44204;SDS011;30163;42.698;23.344;2022-08-25T05:14:06;47.45;;;14.27;;
44204;SDS011;30163;42.698;23.344;2022-08-25T05:16:40;43.08;;;13.82;;
44204;SDS011;30163;42.698;23.344;2022-08-25T05:19:05;32.75;;;14.43;;
44204;SDS011;30163;42.698;23.344;2022-08-25T05:21:32;44.67;;;13.38;;
44204;SDS011;30163;42.698;23.344;2022-08-25T05:24:03;43.92;;;13.77;;
44204;SDS011;30163;42.698;23.344;2022-08-25T05:26:34;37.38;;;14.80;;
44204;SDS011;30163;42.698;23.344;2022-08-25T05:29:02;48.05;;;12.35;;
44204;SDS011;30163;42.698;23.344;2022-08-25T05:31:29;42.33;;;14.43;;
44204;SDS011;30163;42.698;23.344;2022-08-25T05:33:55;38.58;;;13.90;;
44204;SDS011;30163;42.698;23.344;2022-08-25T05:36:21;28.00;;;11.93;;
44204;SDS011;30163;42.698;23.344;2022-08-25T05:38:53;31.80;;;12.10;;
44204;SDS011;30163;42.698;23.344;2022-08-25T05:41:23;39.63;;;12.82;;
44204;SDS011;30163;42.698;23.344;2022-08-25T05:43:53;51.40;;;14.20;;
44204;SDS011;30163;42.698;23.344;2022-08-25T05:46:19;37.45;;;13.43;;
44204;SDS011;30163;42.698;23.344;2022-08-25T05:48:48;43.83;;;13.52;;
44204;SDS011;30163;42.698;23.344;2022-08-25T05:51:20;42.35;;;12.75;;
44204;SDS011;30163;42.698;23.344;2022-08-25T05:53:50;29.38;;;11.82;;
44204;SDS011;30163;42.698;23.344;2022-08-25T05:56:16;29.50;;;11.88;;
44204;SDS011;30163;42.698;23.344;2022-08-25T05:58:42;40.38;;;12.50;;
44204;SDS011;30163;42.698;23.344;2022-08-25T06:01:08;32.22;;;11.57;;
44204;SDS011;30163;42.698;23.344;2022-08-25T06:04:09;39.78;;;13.60;;
44204;SDS011;30163;42.698;23.344;2022-08-25T06:06:34;48.72;;;15.10;;
44204;SDS011;30163;42.698;23.344;2022-08-25T06:09:02;43.75;;;13.10;;
44204;SDS011;30163;42.698;23.344;2022-08-25T06:11:32;41.38;;;13.02;;
44204;SDS011;30163;42.698;23.344;2022-08-25T06:14:03;31.65;;;11.68;;
44204;SDS011;30163;42.698;23.344;2022-08-25T06:16:29;38.53;;;12.20;;
44204;SDS011;30163;42.698;23.344;2022-08-25T06:18:55;37.80;;;12.48;;
44204;SDS011;30163;42.698;23.344;2022-08-25T06:21:23;34.72;;;13.00;;
44204;SDS011;30163;42.698;23.344;2022-08-25T06:23:51;37.10;;;13.20;;
44204;SDS011;30163;42.698;23.344;2022-08-25T06:26:17;24.08;;;11.57;;
44204;SDS011;30163;42.698;23.344;2022-08-25T06:28:45;41.80;;;13.30;;
44204;SDS011;30163;42.698;23.344;2022-08-25T06:31:16;44.00;;;12.77;;
44204;SDS011;30163;42.698;23.344;2022-08-25T06:33:46;35.95;;;13.05;;
44204;SDS011;30163;42.698;23.344;2022-08-25T06:36:15;33.03;;;13.23;;
44204;SDS011;30163;42.698;23.344;2022-08-25T06:38:44;41.72;;;13.00;;
44204;SDS011;30163;42.698;23.344;2022-08-25T06:41:10;37.78;;;13.07;;
44204;SDS011;30163;42.698;23.344;2022-08-25T06:43:40;35.47;;;12.30;;
44204;SDS011;30163;42.698;23.344;2022-08-25T06:46:15;36.80;;;14.13;;
44204;SDS011;30163;42.698;23.344;2022-08-25T06:48:45;35.83;;;13.30;;
44204;SDS011;30163;42.698;23.344;2022-08-25T06:51:14;38.40;;;13.15;;
44204;SDS011;30163;42.698;23.344;2022-08-25T06:53:41;43.60;;;13.38;;
44204;SDS011;30163;42.698;23.344;2022-08-25T06:56:10;31.02;;;12.05;;
44204;SDS011;30163;42.698;23.344;2022-08-25T06:58:38;30.85;;;13.63;;
44204;SDS011;30163;42.698;23.344;2022-08-25T07:01:08;50.97;;;14.20;;
44204;SDS011;30163;42.698;23.344;2022-08-25T07:03:35;37.07;;;11.73;;
44204;SDS011;30163;42.698;23.344;2022-08-25T07:06:01;46.38;;;13.05;;
44204;SDS011;30163;42.698;23.344;2022-08-25T07:08:29;46.75;;;12.95;;
44204;SDS011;30163;42.698;23.344;2022-08-25T07:11:07;49.03;;;12.82;;
44204;SDS011;30163;42.698;23.344;2022-08-25T07:13:36;49.85;;;12.10;;
44204;SDS011;30163;42.698;23.344;2022-08-25T07:16:05;37.47;;;13.63;;
44204;SDS011;30163;42.698;23.344;2022-08-25T07:18:31;51.42;;;13.10;;
44204;SDS011;30163;42.698;23.344;2022-08-25T07:20:57;31.45;;;12.43;;
44204;SDS011;30163;42.698;23.344;2022-08-25T07:23:33;36.65;;;11.95;;
44204;SDS011;30163;42.698;23.344;2022-08-25T07:28:49;31.75;;;10.80;;
44204;SDS011;30163;42.698;23.344;2022-08-25T07:31:21;49.73;;;11.03;;
44204;SDS011;30163;42.698;23.344;2022-08-25T07:33:52;38.63;;;12.67;;
44204;SDS011;30163;42.698;23.344;2022-08-25T07:36:38;46.05;;;12.63;;
44204;SDS011;30163;42.698;23.344;2022-08-25T07:39:09;40.05;;;10.75;;
44204;SDS011;30163;42.698;23.344;2022-08-25T07:41:40;39.83;;;11.70;;
44204;SDS011;30163;42.698;23.344;2022-08-25T07:44:11;39.10;;;11.70;;
44204;SDS011;30163;42.698;23.344;2022-08-25T07:46:39;27.80;;;9.55;;
44204;SDS011;30163;42.698;23.344;2022-08-25T07:49:07;22.38;;;9.75;;
44204;SDS011;30163;42.698;23.344;2022-08-25T07:51:39;32.70;;;10.38;;
44204;SDS011;30163;42.698;23.344;2022-08-25T07:54:07;36.33;;;10.15;;
44204;SDS011;30163;42.698;23.344;2022-08-25T07:56:37;39.00;;;10.35;;
44204;SDS011;30163;42.698;23.344;2022-08-25T07:59:07;36.35;;;10.05;;
44204;SDS011;30163;42.698;23.344;2022-08-25T08:01:34;34.38;;;11.75;;
44204;SDS011;30163;42.698;23.344;2022-08-25T08:04:02;41.50;;;11.25;;
44204;SDS011;30163;42.698;23.344;2022-08-25T08:06:31;61.92;;;10.38;;
44204;SDS011;30163;42.698;23.344;2022-08-25T08:09:02;33.80;;;9.68;;
44204;SDS011;30163;42.698;23.344;2022-08-25T08:11:31;29.77;;;9.88;;
44204;SDS011;30163;42.698;23.344;2022-08-25T08:13:59;35.13;;;10.23;;
44204;SDS011;30163;42.698;23.344;2022-08-25T08:16:30;40.63;;;10.73;;
44204;SDS011;30163;42.698;23.344;2022-08-25T08:18:57;51.92;;;10.15;;
44204;SDS011;30163;42.698;23.344;2022-08-25T08:21:28;35.00;;;9.50;;
44204;SDS011;30163;42.698;23.344;2022-08-25T08:23:58;49.83;;;10.50;;
44204;SDS011;30163;42.698;23.344;2022-08-25T08:26:26;44.08;;;8.60;;
44204;SDS011;30163;42.698;23.344;2022-08-25T08:29:00;51.08;;;9.82;;
44204;SDS011;30163;42.698;23.344;2022-08-25T08:31:31;31.97;;;7.63;;
44204;SDS011;30163;42.698;23.344;2022-08-25T08:34:04;50.88;;;9.05;;
44204;SDS011;30163;42.698;23.344;2022-08-25T08:36:34;37.08;;;9.70;;
44204;SDS011;30163;42.698;23.344;2022-08-25T08:39:08;52.35;;;10.82;;
44204;SDS011;30163;42.698;23.344;2022-08-25T08:44:56;53.38;;;8.93;;
44204;SDS011;30163;42.698;23.344;2022-08-25T08:55:47;41.50;;;8.20;;
44204;SDS011;30163;42.698;23.344;2022-08-25T08:58:26;45.75;;;8.30;;
44204;SDS011;30163;42.698;23.344;2022-08-25T09:01:09;40.17;;;8.52;;
44204;SDS011;30163;42.698;23.344;2022-08-25T09:03:40;51.97;;;7.93;;
44204;SDS011;30163;42.698;23.344;2022-08-25T09:06:12;51.10;;;8.17;;
44204;SDS011;30163;42.698;23.344;2022-08-25T09:08:42;56.63;;;8.07;;
44204;SDS011;30163;42.698;23.344;2022-08-25T09:11:11;65.65;;;8.43;;
44204;SDS011;30163;42.698;23.344;2022-08-25T09:22:20;57.17;;;9.10;;
44204;SDS011;30163;42.698;23.344;2022-08-25T09:28:21;60.03;;;8.52;;
44204;SDS011;30163;42.698;23.344;2022-08-25T09:31:05;57.42;;;7.55;;
44204;SDS011;30163;42.698;23.344;2022-08-25T09:33:37;43.22;;;8.07;;
44204;SDS011;30163;42.698;23.344;2022-08-25T09:36:08;56.20;;;8.50;;
44204;SDS011;30163;42.698;23.344;2022-08-25T09:38:42;57.78;;;8.43;;
44204;SDS011;30163;42.698;23.344;2022-08-25T09:41:21;36.83;;;7.50;;
44204;SDS011;30163;42.698;23.344;2022-08-25T09:44:06;26.98;;;6.75;;
44204;SDS011;30163;42.698;23.344;2022-08-25T09:46:43;45.80;;;7.40;;
44204;SDS011;30163;42.698;23.344;2022-08-25T09:49:38;40.28;;;7.47;;
44204;SDS011;30163;42.698;23.344;2022-08-25T09:52:25;48.58;;;8.25;;
44204;SDS011;30163;42.698;23.344;2022-08-25T09:54:53;55.13;;;8.77;;
44204;SDS011;30163;42.698;23.344;2022-08-25T10:03:06;37.25;;;5.93;;
44204;SDS011;30163;42.698;23.344;2022-08-25T10:08:24;51.75;;;6.38;;
44204;SDS011;30163;42.698;23.344;2022-08-25T10:11:00;47.30;;;6.47;;
44204;SDS011;30163;42.698;23.344;2022-08-25T10:13:38;46.03;;;6.35;;
44204;SDS011;30163;42.698;23.344;2022-08-25T10:18:59;58.50;;;8.05;;
44204;SDS011;30163;42.698;23.344;2022-08-25T10:21:33;29.85;;;5.38;;
44204;SDS011;30163;42.698;23.344;2022-08-25T10:24:00;50.65;;;6.97;;
44204;SDS011;30163;42.698;23.344;2022-08-25T10:26:40;74.75;;;9.82;;
44204;SDS011;30163;42.698;23.344;2022-08-25T10:37:59;37.42;;;6.45;;
44204;SDS011;30163;42.698;23.344;2022-08-25T10:40:40;41.25;;;6.75;;
44204;SDS011;30163;42.698;23.344;2022-08-25T10:46:17;49.40;;;5.78;;
44204;SDS011;30163;42.698;23.344;2022-08-25T10:57:51;43.13;;;5.90;;
44204;SDS011;30163;42.698;23.344;2022-08-25T11:00:24;40.50;;;5.85;;
44204;SDS011;30163;42.698;23.344;2022-08-25T11:05:42;27.80;;;5.90;;
44204;SDS011;30163;42.698;23.344;2022-08-25T11:13:37;40.40;;;5.97;;
44204;SDS011;30163;42.698;23.344;2022-08-25T11:16:23;46.90;;;5.68;;
44204;SDS011;30163;42.698;23.344;2022-08-25T11:18:57;29.45;;;5.35;;
44204;SDS011;30163;42.698;23.344;2022-08-25T11:21:40;30.60;;;4.63;;
44204;SDS011;30163;42.698;23.344;2022-08-25T11:24:25;34.20;;;5.57;;
44204;SDS011;30163;42.698;23.344;2022-08-25T11:26:57;34.33;;;5.97;;
44204;SDS011;30163;42.698;23.344;2022-08-25T11:29:30;30.17;;;6.10;;
44204;SDS011;30163;42.698;23.344;2022-08-25T11:32:03;41.00;;;5.40;;
44204;SDS011;30163;42.698;23.344;2022-08-25T11:34:35;55.85;;;7.15;;
44204;SDS011;30163;42.698;23.344;2022-08-25T11:37:21;47.30;;;5.93;;
44204;SDS011;30163;42.698;23.344;2022-08-25T11:39:58;43.25;;;6.07;;
44204;SDS011;30163;42.698;23.344;2022-08-25T11:48:25;32.88;;;6.10;;
44204;SDS011;30163;42.698;23.344;2022-08-25T11:53:37;33.25;;;5.60;;
44204;SDS011;30163;42.698;23.344;2022-08-25T11:56:08;34.95;;;5.78;;
44204;SDS011;30163;42.698;23.344;2022-08-25T11:59:00;25.05;;;5.25;;
44204;SDS011;30163;42.698;23.344;2022-08-25T12:07:14;30.58;;;5.20;;
44204;SDS011;30163;42.698;23.344;2022-08-25T12:17:47;27.23;;;4.78;;
44204;SDS011;30163;42.698;23.344;2022-08-25T12:26:11;24.27;;;4.80;;
44204;SDS011;30163;42.698;23.344;2022-08-25T12:34:30;34.28;;;5.13;;
44204;SDS011;30163;42.698;23.344;2022-08-25T12:37:26;44.45;;;6.13;;
44204;SDS011;30163;42.698;23.344;2022-08-25T12:39:59;26.88;;;4.63;;
44204;SDS011;30163;42.698;23.344;2022-08-25T12:47:45;37.65;;;5.35;;
44204;SDS011;30163;42.698;23.344;2022-08-25T12:56:09;24.50;;;5.20;;
44204;SDS011;30163;42.698;23.344;2022-08-25T12:58:54;27.73;;;5.20;;
44204;SDS011;30163;42.698;23.344;2022-08-25T13:01:56;40.55;;;5.05;;
44204;SDS011;30163;42.698;23.344;2022-08-25T13:04:39;31.45;;;5.30;;
44204;SDS011;30163;42.698;23.344;2022-08-25T13:07:33;29.27;;;4.90;;
44204;SDS011;30163;42.698;23.344;2022-08-25T13:16:06;33.65;;;4.75;;
44204;SDS011;30163;42.698;23.344;2022-08-25T13:18:33;30.80;;;4.90;;
44204;SDS011;30163;42.698;23.344;2022-08-25T13:23:50;37.08;;;5.70;;
44204;SDS011;30163;42.698;23.344;2022-08-25T13:26:22;26.80;;;4.80;;
44204;SDS011;30163;42.698;23.344;2022-08-25T13:31:37;26.05;;;4.72;;
44204;SDS011;30163;42.698;23.344;2022-08-25T13:34:08;32.50;;;5.65;;
44204;SDS011;30163;42.698;23.344;2022-08-25T13:36:43;25.92;;;5.38;;
44204;SDS011;30163;42.698;23.344;2022-08-25T13:39:32;29.13;;;5.80;;
44204;SDS011;30163;42.698;23.344;2022-08-25T13:41:59;15.48;;;4.97;;
44204;SDS011;30163;42.698;23.344;2022-08-25T13:44:26;48.70;;;6.63;;
44204;SDS011;30163;42.698;23.344;2022-08-25T13:47:07;32.05;;;4.72;;
44204;SDS011;30163;42.698;23.344;2022-08-25T13:52:08;27.35;;;5.53;;
44204;SDS011;30163;42.698;23.344;2022-08-25T13:54:49;43.30;;;4.90;;
44204;SDS011;30163;42.698;23.344;2022-08-25T13:57:20;31.98;;;4.25;;
44204;SDS011;30163;42.698;23.344;2022-08-25T13:59:50;23.90;;;4.90;;
44204;SDS011;30163;42.698;23.344;2022-08-25T14:02:39;46.22;;;5.80;;
44204;SDS011;30163;42.698;23.344;2022-08-25T14:05:11;23.85;;;5.05;;
44204;SDS011;30163;42.698;23.344;2022-08-25T14:07:51;36.78;;;5.57;;
44204;SDS011;30163;42.698;23.344;2022-08-25T14:15:44;44.20;;;5.82;;
44204;SDS011;30163;42.698;23.344;2022-08-25T14:20:47;34.95;;;4.90;;
44204;SDS011;30163;42.698;23.344;2022-08-25T14:23:16;50.33;;;5.00;;
44204;SDS011;30163;42.698;23.344;2022-08-25T14:25:48;32.10;;;4.95;;
44204;SDS011;30163;42.698;23.344;2022-08-25T14:28:15;54.80;;;7.07;;
44204;SDS011;30163;42.698;23.344;2022-08-25T14:30:46;32.65;;;4.97;;
44204;SDS011;30163;42.698;23.344;2022-08-25T14:33:16;37.45;;;5.15;;
44204;SDS011;30163;42.698;23.344;2022-08-25T14:35:46;19.63;;;4.95;;
44204;SDS011;30163;42.698;23.344;2022-08-25T14:38:13;35.00;;;4.88;;
44204;SDS011;30163;42.698;23.344;2022-08-25T14:40:41;35.38;;;5.55;;
44204;SDS011;30163;42.698;23.344;2022-08-25T14:43:08;26.15;;;4.78;;
44204;SDS011;30163;42.698;23.344;2022-08-25T14:45:39;38.70;;;5.15;;
44204;SDS011;30163;42.698;23.344;2022-08-25T14:48:09;31.15;;;5.45;;
44204;SDS011;30163;42.698;23.344;2022-08-25T14:50:39;31.05;;;4.88;;
44204;SDS011;30163;42.698;23.344;2022-08-25T14:53:08;30.52;;;4.93;;
44204;SDS011;30163;42.698;23.344;2022-08-25T14:55:40;34.47;;;4.85;;
44204;SDS011;30163;42.698;23.344;2022-08-25T14:58:06;22.05;;;4.72;;
44204;SDS011;30163;42.698;23.344;2022-08-25T15:00:40;30.50;;;7.18;;
44204;SDS011;30163;42.698;23.344;2022-08-25T15:03:10;16.80;;;4.35;;
44204;SDS011;30163;42.698;23.344;2022-08-25T15:05:37;38.75;;;4.97;;
44204;SDS011;30163;42.698;23.344;2022-08-25T15:08:08;41.65;;;5.75;;
44204;SDS011;30163;42.698;23.344;2022-08-25T15:10:52;36.38;;;5.93;;
44204;SDS011;30163;42.698;23.344;2022-08-25T15:13:21;53.38;;;6.78;;
44204;SDS011;30163;42.698;23.344;2022-08-25T15:15:47;36.53;;;5.32;;
44204;SDS011;30163;42.698;23.344;2022-08-25T15:18:13;50.13;;;5.97;;
44204;SDS011;30163;42.698;23.344;2022-08-25T15:20:41;32.38;;;9.93;;
44204;SDS011;30163;42.698;23.344;2022-08-25T15:23:06;44.42;;;5.65;;
44204;SDS011;30163;42.698;23.344;2022-08-25T15:25:33;26.13;;;6.07;;
44204;SDS011;30163;42.698;23.344;2022-08-25T15:28:03;35.35;;;6.47;;
44204;SDS011;30163;42.698;23.344;2022-08-25T15:30:29;41.83;;;6.50;;
44204;SDS011;30163;42.698;23.344;2022-08-25T15:32:59;38.97;;;7.10;;
44204;SDS011;30163;42.698;23.344;2022-08-25T15:35:25;36.50;;;6.18;;
44204;SDS011;30163;42.698;23.344;2022-08-25T15:37:51;52.28;;;9.18;;
44204;SDS011;30163;42.698;23.344;2022-08-25T15:40:17;97.65;;;31.65;;
44204;SDS011;30163;42.698;23.344;2022-08-25T15:42:43;53.85;;;13.93;;
44204;SDS011;30163;42.698;23.344;2022-08-25T15:45:09;54.97;;;20.52;;
44204;SDS011;30163;42.698;23.344;2022-08-25T15:47:38;68.57;;;14.18;;
44204;SDS011;30163;42.698;23.344;2022-08-25T15:50:08;30.92;;;6.15;;
44204;SDS011;30163;42.698;23.344;2022-08-25T15:52:38;49.72;;;6.93;;
44204;SDS011;30163;42.698;23.344;2022-08-25T15:55:04;74.43;;;26.77;;
44204;SDS011;30163;42.698;23.344;2022-08-25T15:57:31;65.80;;;12.77;;
44204;SDS011;30163;42.698;23.344;2022-08-25T15:59:57;84.28;;;17.65;;
44204;SDS011;30163;42.698;23.344;2022-08-25T16:02:26;36.88;;;6.60;;
44204;SDS011;30163;42.698;23.344;2022-08-25T16:04:52;43.13;;;6.75;;
44204;SDS011;30163;42.698;23.344;2022-08-25T16:07:18;51.50;;;7.35;;
44204;SDS011;30163;42.698;23.344;2022-08-25T16:09:44;54.30;;;16.60;;
44204;SDS011;30163;42.698;23.344;2022-08-25T16:12:10;56.55;;;20.63;;
44204;SDS011;30163;42.698;23.344;2022-08-25T16:14:36;49.92;;;11.98;;
44204;SDS011;30163;42.698;23.344;2022-08-25T16:17:04;50.90;;;19.45;;
44204;SDS011;30163;42.698;23.344;2022-08-25T16:19:31;48.50;;;10.00;;
44204;SDS011;30163;42.698;23.344;2022-08-25T16:21:59;44.70;;;6.38;;
44204;SDS011;30163;42.698;23.344;2022-08-25T16:24:25;53.80;;;7.53;;
44204;SDS011;30163;42.698;23.344;2022-08-25T16:26:51;39.78;;;7.82;;
44204;SDS011;30163;42.698;23.344;2022-08-25T16:29:18;51.03;;;8.98;;
44204;SDS011;30163;42.698;23.344;2022-08-25T16:31:44;37.08;;;6.28;;
44204;SDS011;30163;42.698;23.344;2022-08-25T16:34:12;37.70;;;8.43;;
44204;SDS011;30163;42.698;23.344;2022-08-25T16:36:42;42.35;;;10.15;;
44204;SDS011;30163;42.698;23.344;2022-08-25T16:39:08;38.80;;;12.15;;
44204;SDS011;30163;42.698;23.344;2022-08-25T16:41:35;29.50;;;6.35;;
44204;SDS011;30163;42.698;23.344;2022-08-25T16:44:05;48.05;;;13.90;;